Pledger, Texas
Current Conditions -  °F | °C
As of 9:15 AM on Monday 24 Nov 2014 (Local Time) from KARM Reporting Station
Clear Clear  
Wind Chill: 13°   Ceiling: Unl
Heat Index: 13°   Visibility: 10mi
Dew Point:   Wind: 17mph
Humidity: 55%   Direction: 360°N
Pressure: 30.06"   Gusts: 24mph
Location:  29.18°N, 95.91°W
Report Text: KARM 241515Z AUTO 36015G21KT 10SM CLR 13/04 A3006 RMK AO2 T01300041
Loading
Personal Weather Stations






























Interactive Weather Map New forecast layout! Learn more

10-Day Weather Forecast

Advertisements
Track Severe Weather on mobile